Kacug, Russia
Current Conditions -  °F | °C
As of 12:30 AM on Friday 24 Oct 2014 (Local Time) from UIII Reporting Station
Smoke Smoke  
Wind Chill: 24°   Ceiling: 10000
Heat Index: 30°   Visibility: 0.75mi
Dew Point: 28°   Wind: 7mph
Humidity: 93%   Direction: 140°SE
Pressure: 29.8"   Gusts: NA
Location:  53.97°N, 105.9°E
Report Text: UIII 231630Z 14003MPS 1200 R30/P1500D BR FU SCT020 OVC100M01/M02 Q1009 NOSIG RMK QFE712/0950 30190055
Loading
Personal Weather Stations






























Interactive Weather Map
Tropical Storm Tracking
New forecast layout! Learn more

10-Day Weather Forecast

Advertisements
Track Severe Weather on mobile